createdAt,value
2023-03-31T00:02:13.997Z,7.70
2023-03-31T00:04:46.401Z,7.60
2023-03-31T00:07:15.217Z,7.50
2023-03-31T00:09:46.503Z,7.60
2023-03-31T00:12:14.944Z,7.60
2023-03-31T00:14:42.605Z,7.60
2023-03-31T00:17:10.930Z,7.60
2023-03-31T00:19:37.919Z,7.60
2023-03-31T00:22:05.394Z,7.60
2023-03-31T00:24:33.352Z,7.60
2023-03-31T00:27:01.363Z,7.70
2023-03-31T00:29:29.010Z,7.70
2023-03-31T00:31:56.351Z,7.80
2023-03-31T00:34:23.393Z,7.80
2023-03-31T00:36:50.384Z,7.80
2023-03-31T00:39:19.242Z,7.90
2023-03-31T00:41:46.232Z,7.90
2023-03-31T00:44:29.682Z,8.00
2023-03-31T00:47:18.199Z,8.00
2023-03-31T00:49:48.603Z,8.00
2023-03-31T00:52:32.747Z,8.00
2023-03-31T00:55:04.688Z,8.10
2023-03-31T00:57:37.429Z,8.10
2023-03-31T01:00:18.976Z,8.10
2023-03-31T01:02:53.375Z,8.10
2023-03-31T01:05:40.751Z,8.20
2023-03-31T01:08:08.239Z,8.20
2023-03-31T01:10:42.003Z,8.10
2023-03-31T01:13:10.827Z,8.10
2023-03-31T01:15:38.623Z,8.00
2023-03-31T01:18:11.184Z,8.00
2023-03-31T01:21:15.750Z,7.90
2023-03-31T01:24:00.509Z,7.80
2023-03-31T01:27:08.551Z,7.80
2023-03-31T01:29:57.174Z,7.90
2023-03-31T01:32:39.172Z,7.80
2023-03-31T01:35:24.631Z,7.80
2023-03-31T01:38:09.740Z,7.80
2023-03-31T01:40:45.734Z,7.80
2023-03-31T01:43:36.580Z,7.80
2023-03-31T01:46:28.590Z,7.80
2023-03-31T01:49:33.489Z,7.90
2023-03-31T01:52:26.285Z,8.00
2023-03-31T01:54:56.312Z,8.00
2023-03-31T01:57:31.632Z,8.00
2023-03-31T02:00:18.747Z,8.00
2023-03-31T02:03:06.219Z,8.10
2023-03-31T02:05:42.920Z,8.10
2023-03-31T02:08:12.300Z,8.10
2023-03-31T02:10:42.437Z,8.20
2023-03-31T02:13:11.711Z,8.20
2023-03-31T02:15:42.418Z,8.10
2023-03-31T02:18:13.337Z,8.10
2023-03-31T02:20:43.207Z,8.10
2023-03-31T02:23:13.869Z,8.10
2023-03-31T02:25:57.910Z,8.10
2023-03-31T02:28:28.406Z,8.10
2023-03-31T02:31:19.502Z,8.00
2023-03-31T02:33:47.321Z,7.90
2023-03-31T02:36:14.152Z,7.90
2023-03-31T02:38:53.849Z,7.80
2023-03-31T02:41:20.646Z,7.70
2023-03-31T02:43:47.354Z,7.70
2023-03-31T02:46:14.350Z,7.70
2023-03-31T02:48:45.942Z,7.60
2023-03-31T02:51:36.191Z,7.60
2023-03-31T02:54:24.476Z,7.60
2023-03-31T02:57:06.589Z,7.50
2023-03-31T02:59:47.268Z,7.50
2023-03-31T03:02:55.681Z,7.50
2023-03-31T03:05:53.568Z,7.40
2023-03-31T03:08:40.731Z,7.50
2023-03-31T03:11:35.841Z,7.50
2023-03-31T03:14:40.866Z,7.50
2023-03-31T03:17:28.938Z,7.50
2023-03-31T03:20:00.311Z,7.50
2023-03-31T03:22:27.900Z,7.40
2023-03-31T03:24:54.667Z,7.40
2023-03-31T03:27:24.443Z,7.40
2023-03-31T03:29:51.592Z,7.40
2023-03-31T03:32:18.299Z,7.50
2023-03-31T03:34:45.649Z,7.50
2023-03-31T03:37:12.415Z,7.50
2023-03-31T03:39:39.175Z,7.50
2023-03-31T03:42:06.242Z,7.50
2023-03-31T03:44:32.978Z,7.50
2023-03-31T03:47:00.001Z,7.50
2023-03-31T03:49:26.773Z,7.50
2023-03-31T03:51:53.852Z,7.50
2023-03-31T03:54:20.623Z,7.50
2023-03-31T03:56:47.412Z,7.50
2023-03-31T03:59:14.441Z,7.50
2023-03-31T04:01:41.361Z,7.50
2023-03-31T04:04:08.219Z,7.50
2023-03-31T04:06:35.496Z,7.50
2023-03-31T04:09:02.240Z,7.50
2023-03-31T04:11:29.192Z,7.50
2023-03-31T04:13:56.131Z,7.40
2023-03-31T04:16:25.790Z,7.40
2023-03-31T04:18:56.969Z,7.40
2023-03-31T04:21:24.189Z,7.40
2023-03-31T04:23:59.150Z,7.40
2023-03-31T04:26:31.169Z,7.30
2023-03-31T04:29:01.488Z,7.30
2023-03-31T04:31:30.793Z,7.20
2023-03-31T04:34:02.732Z,7.20
2023-03-31T04:36:31.516Z,7.20
2023-03-31T04:38:58.270Z,7.20
2023-03-31T04:41:27.790Z,7.20
2023-03-31T04:43:54.601Z,7.20
2023-03-31T04:46:21.891Z,7.10
2023-03-31T04:48:49.147Z,7.10
2023-03-31T04:51:16.475Z,7.10
2023-03-31T04:53:43.216Z,7.10
2023-03-31T04:56:10.178Z,7.10
2023-03-31T04:58:37.047Z,7.10
2023-03-31T05:01:06.465Z,7.20
2023-03-31T05:03:34.373Z,7.20
2023-03-31T05:06:01.668Z,7.20
2023-03-31T05:08:28.419Z,7.10
2023-03-31T05:10:55.506Z,7.10
2023-03-31T05:13:22.403Z,7.10
2023-03-31T05:15:51.052Z,7.20
2023-03-31T05:18:18.314Z,7.20
2023-03-31T05:20:45.093Z,7.20
2023-03-31T05:23:12.156Z,7.20
2023-03-31T05:25:39.259Z,7.20
2023-03-31T05:28:06.330Z,7.20
2023-03-31T05:30:33.070Z,7.20
2023-03-31T05:33:00.129Z,7.20
2023-03-31T05:35:26.962Z,7.20
2023-03-31T05:37:53.744Z,7.20
2023-03-31T05:40:20.524Z,7.20
2023-03-31T05:42:47.211Z,7.20
2023-03-31T05:45:14.261Z,7.20
2023-03-31T05:47:41.062Z,7.20
2023-03-31T05:50:09.450Z,7.20
2023-03-31T05:52:36.808Z,7.10
2023-03-31T05:55:04.925Z,7.10
2023-03-31T05:57:32.040Z,7.20
2023-03-31T05:59:59.203Z,7.10
2023-03-31T06:02:26.148Z,7.10
2023-03-31T06:04:52.969Z,7.10
2023-03-31T06:07:19.725Z,7.10
2023-03-31T06:09:46.895Z,7.00
2023-03-31T06:12:14.037Z,7.00
2023-03-31T06:14:40.817Z,7.00
2023-03-31T06:17:07.964Z,7.00
2023-03-31T06:19:35.059Z,7.00
2023-03-31T06:22:01.830Z,7.10
2023-03-31T06:24:28.783Z,7.10
2023-03-31T06:26:55.596Z,7.10
2023-03-31T06:29:22.360Z,7.20
2023-03-31T06:31:49.470Z,7.20
2023-03-31T06:34:17.847Z,7.10
2023-03-31T06:36:45.504Z,7.20
2023-03-31T06:39:12.224Z,7.20
2023-03-31T06:41:39.167Z,7.20
2023-03-31T06:44:06.148Z,7.20
2023-03-31T06:46:33.014Z,7.20
2023-03-31T06:49:00.134Z,7.20
2023-03-31T06:51:26.913Z,7.20
2023-03-31T06:53:53.857Z,7.20
2023-03-31T06:56:20.885Z,7.20
2023-03-31T06:58:47.737Z,7.20
2023-03-31T07:01:14.487Z,7.20
2023-03-31T07:03:46.372Z,7.20
2023-03-31T07:06:13.182Z,7.20
2023-03-31T07:08:39.965Z,7.30
2023-03-31T07:11:07.023Z,7.40
2023-03-31T07:13:34.121Z,7.50
2023-03-31T07:16:00.899Z,7.40
2023-03-31T07:18:34.781Z,7.40
2023-03-31T07:21:02.124Z,7.40
2023-03-31T07:23:29.653Z,7.30
2023-03-31T07:25:56.994Z,7.20
2023-03-31T07:28:23.678Z,7.20
2023-03-31T07:30:50.460Z,7.20
2023-03-31T07:33:17.252Z,7.30
2023-03-31T07:35:44.206Z,7.30
2023-03-31T07:38:12.922Z,7.30
2023-03-31T07:40:41.471Z,7.30
2023-03-31T07:43:08.215Z,7.40
2023-03-31T07:45:35.438Z,7.40
2023-03-31T07:48:02.562Z,7.50
2023-03-31T07:50:29.405Z,7.40
2023-03-31T07:52:56.706Z,7.40
2023-03-31T07:55:23.893Z,7.50
2023-03-31T07:57:51.420Z,7.50
2023-03-31T08:00:19.273Z,7.50
2023-03-31T08:02:46.177Z,7.50
2023-03-31T08:05:15.227Z,7.40
2023-03-31T08:07:45.341Z,7.50
2023-03-31T08:10:16.584Z,7.50
2023-03-31T08:12:43.489Z,7.50
2023-03-31T08:15:11.016Z,7.50
2023-03-31T08:17:38.209Z,7.40
2023-03-31T08:20:10.612Z,7.40
2023-03-31T08:22:38.807Z,7.40
2023-03-31T08:25:08.100Z,7.40
2023-03-31T08:27:36.698Z,7.50
2023-03-31T08:30:04.849Z,7.50
2023-03-31T08:32:33.097Z,7.40
2023-03-31T08:35:00.422Z,7.40
2023-03-31T08:37:31.645Z,7.50
2023-03-31T08:39:58.703Z,7.60
2023-03-31T08:42:33.638Z,7.60
2023-03-31T08:45:06.743Z,7.70
2023-03-31T08:47:36.853Z,7.60
2023-03-31T08:50:11.735Z,7.50
2023-03-31T08:52:59.194Z,7.50
2023-03-31T08:55:36.184Z,7.50
2023-03-31T08:58:35.669Z,7.50
2023-03-31T09:01:10.125Z,7.60
2023-03-31T09:03:43.384Z,7.50
2023-03-31T09:06:38.921Z,7.50
2023-03-31T09:09:10.824Z,7.50
2023-03-31T09:11:51.083Z,7.50
2023-03-31T09:14:39.091Z,7.50
2023-03-31T09:17:06.589Z,7.50
2023-03-31T09:19:49.016Z,7.50
2023-03-31T09:22:22.494Z,7.50
2023-03-31T09:25:09.468Z,7.50
2023-03-31T09:27:38.114Z,7.60
2023-03-31T09:30:31.181Z,7.60
2023-03-31T09:33:24.680Z,7.60
2023-03-31T09:35:52.191Z,7.60
2023-03-31T09:38:19.106Z,7.60
2023-03-31T09:40:46.113Z,7.60
2023-03-31T09:43:26.121Z,7.60
2023-03-31T09:46:08.570Z,7.70
2023-03-31T09:48:42.316Z,7.70
2023-03-31T09:51:17.834Z,7.80
2023-03-31T09:53:53.470Z,7.80
2023-03-31T09:56:48.997Z,7.80
2023-03-31T09:59:50.458Z,7.80
2023-03-31T10:02:39.311Z,7.80
2023-03-31T10:05:08.717Z,7.80
2023-03-31T10:07:35.927Z,7.80
2023-03-31T10:10:03.644Z,7.80
2023-03-31T10:12:32.034Z,7.80
2023-03-31T10:15:17.931Z,7.80
2023-03-31T10:17:54.855Z,7.80
2023-03-31T10:20:37.282Z,7.90
2023-03-31T10:23:29.118Z,7.90
2023-03-31T10:25:56.978Z,7.90
2023-03-31T10:28:24.237Z,7.90
2023-03-31T10:31:01.650Z,7.90
2023-03-31T10:33:34.918Z,7.80
2023-03-31T10:36:22.547Z,7.80
2023-03-31T10:38:51.932Z,7.80
2023-03-31T10:41:37.116Z,7.90
2023-03-31T10:44:04.510Z,7.90
2023-03-31T10:46:48.140Z,8.00
2023-03-31T10:49:39.504Z,8.10
2023-03-31T10:52:20.222Z,8.20
2023-03-31T10:54:48.919Z,8.30
2023-03-31T10:57:18.014Z,8.40
2023-03-31T10:59:53.484Z,8.80
2023-03-31T11:02:36.601Z,9.00
2023-03-31T11:05:25.504Z,9.00
2023-03-31T11:08:05.406Z,8.90
2023-03-31T11:10:41.615Z,8.90
2023-03-31T11:13:25.039Z,8.80
2023-03-31T11:16:01.690Z,8.60
2023-03-31T11:18:56.629Z,8.30
2023-03-31T11:21:29.736Z,8.20
2023-03-31T11:24:13.118Z,8.00
2023-03-31T11:27:08.995Z,7.70
2023-03-31T11:29:44.604Z,7.60
2023-03-31T11:32:31.483Z,7.40
2023-03-31T11:35:22.932Z,7.30
2023-03-31T11:38:07.791Z,7.20
2023-03-31T11:41:08.614Z,7.10
2023-03-31T11:43:55.597Z,7.00
2023-03-31T11:46:27.178Z,7.00
2023-03-31T11:49:25.112Z,6.90
2023-03-31T11:52:05.480Z,6.80
2023-03-31T11:54:37.650Z,6.80
2023-03-31T11:57:18.055Z,6.80
2023-03-31T11:59:49.434Z,6.90
2023-03-31T12:02:40.951Z,7.10
2023-03-31T12:05:10.848Z,7.20
2023-03-31T12:07:50.547Z,7.30
2023-03-31T12:10:23.575Z,7.30
2023-03-31T12:13:01.260Z,7.30
2023-03-31T12:15:40.476Z,7.30
2023-03-31T12:18:20.672Z,7.20
2023-03-31T12:20:57.029Z,7.10
2023-03-31T12:23:28.544Z,7.00
2023-03-31T12:26:14.330Z,7.00
2023-03-31T12:28:42.844Z,7.10
2023-03-31T12:31:20.782Z,7.20
2023-03-31T12:33:56.389Z,7.20
2023-03-31T12:36:56.782Z,7.20
2023-03-31T12:39:37.550Z,7.20
2023-03-31T12:42:16.304Z,7.10
2023-03-31T12:44:59.977Z,7.00
2023-03-31T12:47:51.690Z,6.90
2023-03-31T12:50:46.723Z,6.90
2023-03-31T12:53:31.493Z,6.90
2023-03-31T12:55:59.192Z,6.90
2023-03-31T12:58:32.316Z,6.90
2023-03-31T13:01:07.943Z,6.90
2023-03-31T13:03:42.557Z,7.00
2023-03-31T13:06:32.807Z,7.10
2023-03-31T13:09:08.691Z,7.40
2023-03-31T13:11:38.207Z,7.70
2023-03-31T13:14:13.985Z,8.20
2023-03-31T13:16:41.273Z,8.80
2023-03-31T13:19:12.009Z,9.20
2023-03-31T13:21:56.726Z,9.50
2023-03-31T13:24:25.116Z,9.60
2023-03-31T13:26:54.875Z,9.40
2023-03-31T13:29:23.688Z,9.40
2023-03-31T13:32:02.990Z,10.10
2023-03-31T13:34:33.871Z,11.70
2023-03-31T13:37:28.517Z,12.70
2023-03-31T13:40:24.391Z,12.80
2023-03-31T13:43:08.052Z,13.00
2023-03-31T13:45:44.146Z,13.20
2023-03-31T13:48:29.410Z,13.20
2023-03-31T13:51:15.062Z,12.40
2023-03-31T13:54:06.384Z,11.80
2023-03-31T13:57:14.557Z,11.00
2023-03-31T14:00:12.771Z,9.90
2023-03-31T14:03:17.185Z,9.30
2023-03-31T14:06:22.607Z,8.90
2023-03-31T14:08:58.861Z,8.50
2023-03-31T14:11:28.411Z,8.40
2023-03-31T14:14:14.644Z,8.50
2023-03-31T14:16:56.094Z,8.40
2023-03-31T14:19:48.137Z,8.40
2023-03-31T14:22:23.693Z,8.50
2023-03-31T14:25:25.566Z,8.60
2023-03-31T14:28:23.876Z,8.70
2023-03-31T14:31:03.032Z,8.70
2023-03-31T14:33:39.855Z,8.70
2023-03-31T14:36:13.717Z,8.90
2023-03-31T14:38:40.691Z,9.10
2023-03-31T14:41:15.659Z,9.20
2023-03-31T14:43:49.479Z,9.30
2023-03-31T14:46:21.791Z,9.30
2023-03-31T14:48:50.857Z,9.30
2023-03-31T14:51:24.835Z,9.20
2023-03-31T14:54:00.150Z,9.10
2023-03-31T14:56:36.185Z,9.20
2023-03-31T14:59:05.022Z,9.30
2023-03-31T15:01:34.594Z,9.50
2023-03-31T15:04:11.305Z,9.50
2023-03-31T15:06:40.006Z,9.50
2023-03-31T15:09:07.875Z,9.30
2023-03-31T15:11:35.093Z,9.30
2023-03-31T15:14:05.460Z,9.30
2023-03-31T15:16:42.899Z,9.30
2023-03-31T15:19:28.944Z,9.30
2023-03-31T15:22:31.079Z,9.40
2023-03-31T15:24:57.913Z,9.30
2023-03-31T15:27:42.786Z,9.30
2023-03-31T15:30:17.643Z,9.30
2023-03-31T15:32:44.657Z,9.40
2023-03-31T15:35:22.705Z,9.30
2023-03-31T15:37:53.068Z,9.30
2023-03-31T15:40:29.540Z,9.30
2023-03-31T15:45:48.459Z,9.30
2023-03-31T15:48:21.003Z,9.30
2023-03-31T15:50:48.913Z,9.30
2023-03-31T15:53:43.234Z,9.20
2023-03-31T15:56:33.680Z,9.20
2023-03-31T15:59:04.411Z,9.10
2023-03-31T16:01:38.949Z,8.90
2023-03-31T16:04:14.815Z,8.80
2023-03-31T16:06:55.830Z,8.70
2023-03-31T16:09:52.973Z,8.70
2023-03-31T16:12:31.675Z,8.60
2023-03-31T16:15:14.611Z,8.50
2023-03-31T16:17:58.351Z,8.50
2023-03-31T16:20:40.761Z,8.50
2023-03-31T16:23:21.488Z,8.50
2023-03-31T16:25:48.578Z,8.60
2023-03-31T16:28:22.941Z,8.50
2023-03-31T16:30:54.922Z,8.50
2023-03-31T16:33:23.806Z,8.40
2023-03-31T16:35:53.818Z,8.40
2023-03-31T16:38:23.452Z,8.50
2023-03-31T16:40:56.432Z,8.50
2023-03-31T16:43:31.192Z,8.50
2023-03-31T16:46:00.516Z,8.50
2023-03-31T16:48:29.759Z,8.60
2023-03-31T16:50:58.372Z,8.60
2023-03-31T16:53:28.526Z,8.60
2023-03-31T16:55:56.207Z,8.50
2023-03-31T16:58:24.153Z,8.60
2023-03-31T17:00:51.940Z,8.50
2023-03-31T17:03:19.366Z,8.50
2023-03-31T17:05:48.735Z,8.50
2023-03-31T17:08:25.932Z,8.40
2023-03-31T17:11:04.608Z,8.30
2023-03-31T17:13:32.549Z,8.30
2023-03-31T17:16:13.410Z,8.20
2023-03-31T17:18:44.635Z,8.10
2023-03-31T17:21:13.835Z,8.10
2023-03-31T17:23:41.172Z,8.10
2023-03-31T17:26:09.766Z,8.10
2023-03-31T17:28:37.112Z,8.10
2023-03-31T17:31:13.647Z,8.10
2023-03-31T17:33:40.740Z,8.00
2023-03-31T17:36:08.281Z,8.10
2023-03-31T17:38:35.085Z,8.10
2023-03-31T17:41:06.351Z,8.00
2023-03-31T17:43:33.489Z,8.00
2023-03-31T17:46:06.304Z,8.00
2023-03-31T17:48:37.360Z,7.90
2023-03-31T17:51:09.583Z,7.90
2023-03-31T17:53:36.774Z,7.90
2023-03-31T17:56:04.743Z,7.90
2023-03-31T17:58:33.103Z,7.90
2023-03-31T18:01:00.347Z,7.90
2023-03-31T18:03:30.224Z,7.90
2023-03-31T18:05:57.636Z,7.90
2023-03-31T18:08:24.607Z,7.90
2023-03-31T18:10:51.452Z,7.90
2023-03-31T18:13:18.238Z,7.90
2023-03-31T18:15:53.213Z,7.90
2023-03-31T18:18:20.730Z,7.90
2023-03-31T18:20:47.959Z,7.90
2023-03-31T18:23:15.270Z,7.90
2023-03-31T18:25:46.289Z,7.80
2023-03-31T18:28:17.580Z,7.80
2023-03-31T18:30:44.447Z,7.80
2023-03-31T18:33:12.812Z,7.90
2023-03-31T18:35:40.197Z,8.00
2023-03-31T18:38:07.562Z,8.00
2023-03-31T18:40:34.378Z,8.00
2023-03-31T18:43:01.168Z,8.00
2023-03-31T18:45:28.616Z,8.00
2023-03-31T18:47:55.412Z,8.00
2023-03-31T18:50:23.661Z,8.00
2023-03-31T18:52:54.934Z,8.00
2023-03-31T18:55:22.374Z,7.90
2023-03-31T18:57:49.350Z,7.80
2023-03-31T19:00:17.420Z,7.70
2023-03-31T19:02:44.607Z,7.80
2023-03-31T19:05:12.223Z,7.80
2023-03-31T19:07:39.632Z,7.80
2023-03-31T19:10:07.863Z,7.80
2023-03-31T19:12:34.829Z,7.80
2023-03-31T19:15:01.941Z,7.80
2023-03-31T19:17:28.807Z,7.80
2023-03-31T19:19:55.529Z,7.80
2023-03-31T19:22:22.539Z,7.80
2023-03-31T19:24:49.846Z,7.80
2023-03-31T19:27:16.891Z,7.90
2023-03-31T19:29:43.607Z,7.90
2023-03-31T19:32:10.805Z,7.90
2023-03-31T19:34:38.394Z,7.90
2023-03-31T19:37:05.560Z,7.90
2023-03-31T19:39:32.351Z,7.80
2023-03-31T19:41:59.119Z,7.80
2023-03-31T19:44:26.203Z,7.70
2023-03-31T19:46:52.924Z,7.70
2023-03-31T19:49:20.061Z,7.70
2023-03-31T19:51:53.631Z,7.70
2023-03-31T19:54:20.395Z,7.70
2023-03-31T19:56:47.700Z,7.60
2023-03-31T19:59:14.751Z,7.50
2023-03-31T20:01:41.722Z,7.50
2023-03-31T20:04:08.746Z,7.50
2023-03-31T20:06:35.931Z,7.50
2023-03-31T20:09:03.679Z,7.50
2023-03-31T20:11:32.081Z,7.50
2023-03-31T20:13:59.717Z,7.50
2023-03-31T20:16:29.927Z,7.60
2023-03-31T20:18:59.798Z,7.50
2023-03-31T20:21:28.823Z,7.50
2023-03-31T20:23:57.092Z,7.40
2023-03-31T20:26:26.185Z,7.40
2023-03-31T20:28:55.164Z,7.30
2023-03-31T20:31:30.682Z,7.30
2023-03-31T20:33:58.319Z,7.30
2023-03-31T20:36:29.669Z,7.30
2023-03-31T20:38:57.208Z,7.30
2023-03-31T20:41:27.022Z,7.30
2023-03-31T20:43:55.120Z,7.30
2023-03-31T20:46:23.040Z,7.20
2023-03-31T20:48:52.452Z,7.20
2023-03-31T20:51:22.826Z,7.20
2023-03-31T20:53:52.771Z,7.10
2023-03-31T20:56:25.770Z,7.10
2023-03-31T20:58:59.172Z,7.10
2023-03-31T21:01:32.590Z,7.00
2023-03-31T21:04:02.275Z,7.00
2023-03-31T21:06:32.613Z,7.10
2023-03-31T21:08:59.577Z,7.10
2023-03-31T21:11:26.576Z,7.00
2023-03-31T21:13:53.556Z,7.00
2023-03-31T21:16:21.391Z,7.00
2023-03-31T21:18:48.592Z,6.90
2023-03-31T21:21:19.231Z,6.90
2023-03-31T21:23:47.042Z,6.90
2023-03-31T21:26:15.691Z,6.90
2023-03-31T21:28:43.801Z,6.90
2023-03-31T21:31:17.029Z,6.90
2023-03-31T21:33:45.505Z,6.80
2023-03-31T21:36:15.127Z,6.80
2023-03-31T21:38:42.305Z,6.80
2023-03-31T21:41:18.037Z,6.70
2023-03-31T21:43:45.752Z,6.70
2023-03-31T21:46:26.483Z,6.70
2023-03-31T21:48:54.100Z,6.70
2023-03-31T21:51:22.163Z,6.70
2023-03-31T21:53:50.069Z,6.80
2023-03-31T21:56:17.281Z,6.80
2023-03-31T21:58:44.196Z,6.70
2023-03-31T22:01:10.977Z,6.70
2023-03-31T22:03:38.466Z,6.70
2023-03-31T22:06:09.749Z,6.70
2023-03-31T22:08:37.819Z,6.70
2023-03-31T22:11:07.051Z,6.70
2023-03-31T22:13:34.870Z,6.70
2023-03-31T22:16:02.137Z,6.70
2023-03-31T22:18:29.548Z,6.70
2023-03-31T22:20:57.353Z,6.70
2023-03-31T22:23:24.319Z,6.70
2023-03-31T22:25:51.284Z,6.60
2023-03-31T22:28:18.362Z,6.60
2023-03-31T22:30:45.109Z,6.60
2023-03-31T22:33:12.257Z,6.60
2023-03-31T22:35:39.125Z,6.60
2023-03-31T22:38:06.780Z,6.60
2023-03-31T22:40:35.097Z,6.60
2023-03-31T22:43:02.183Z,6.50
2023-03-31T22:45:29.281Z,6.60
2023-03-31T22:47:56.567Z,6.60
2023-03-31T22:50:23.779Z,6.60
2023-03-31T22:52:51.111Z,6.60
2023-03-31T22:55:17.879Z,6.60
2023-03-31T22:57:44.806Z,6.50
2023-03-31T23:00:12.994Z,6.50
2023-03-31T23:02:39.934Z,6.50
2023-03-31T23:05:07.727Z,6.50
2023-03-31T23:07:34.675Z,6.50
2023-03-31T23:10:01.594Z,6.50
2023-03-31T23:12:28.849Z,6.50
2023-03-31T23:14:55.427Z,6.60
2023-03-31T23:17:22.130Z,6.50
2023-03-31T23:19:51.028Z,6.50
2023-03-31T23:22:18.641Z,6.50
2023-03-31T23:24:45.577Z,6.50
2023-03-31T23:27:12.203Z,6.50
2023-03-31T23:29:39.311Z,6.60
2023-03-31T23:32:06.315Z,6.60
2023-03-31T23:34:33.319Z,6.60
2023-03-31T23:37:00.029Z,6.60
2023-03-31T23:39:27.446Z,6.50
2023-03-31T23:41:54.170Z,6.50
2023-03-31T23:44:21.122Z,6.60
2023-03-31T23:46:48.009Z,6.60
2023-03-31T23:49:14.813Z,6.50
2023-03-31T23:51:41.683Z,6.50
2023-03-31T23:54:08.640Z,6.60
2023-03-31T23:56:35.403Z,6.60
2023-03-31T23:59:02.293Z,6.60
